createdAt,value
2023-07-03T00:02:22.551Z,79.45
2023-07-03T00:04:51.633Z,79.69
2023-07-03T00:07:20.704Z,78.89
2023-07-03T00:09:51.195Z,79.35
2023-07-03T00:12:19.918Z,79.95
2023-07-03T00:14:49.503Z,80.20
2023-07-03T00:17:17.928Z,81.02
2023-07-03T00:19:46.305Z,81.54
2023-07-03T00:22:14.645Z,81.61
2023-07-03T00:24:44.522Z,81.81
2023-07-03T00:27:14.352Z,82.06
2023-07-03T00:29:42.664Z,81.69
2023-07-03T00:32:11.351Z,82.17
2023-07-03T00:34:39.760Z,81.50
2023-07-03T00:37:08.481Z,81.50
2023-07-03T00:39:36.964Z,81.30
2023-07-03T00:42:08.456Z,82.09
2023-07-03T00:44:38.692Z,81.21
2023-07-03T00:47:07.986Z,81.62
2023-07-03T00:49:36.439Z,81.12
2023-07-03T00:52:05.882Z,81.80
2023-07-03T00:54:34.454Z,81.53
2023-07-03T00:57:02.648Z,80.99
2023-07-03T00:59:31.065Z,81.43
2023-07-03T01:02:14.409Z,81.59
2023-07-03T01:04:51.690Z,82.17
2023-07-03T01:07:25.143Z,81.65
2023-07-03T01:09:58.058Z,81.78
2023-07-03T01:12:31.598Z,80.83
2023-07-03T01:15:04.125Z,80.40
2023-07-03T01:17:35.903Z,80.17
2023-07-03T01:20:06.285Z,79.90
2023-07-03T01:22:43.534Z,80.55
2023-07-03T01:25:18.295Z,80.76
2023-07-03T01:27:48.616Z,80.13
2023-07-03T01:30:20.846Z,80.32
2023-07-03T01:32:52.462Z,80.19
2023-07-03T01:35:22.430Z,79.09
2023-07-03T01:37:53.632Z,78.84
2023-07-03T01:40:28.564Z,78.56
2023-07-03T01:42:58.858Z,78.34
2023-07-03T01:45:28.223Z,78.64
2023-07-03T01:47:56.878Z,77.34
2023-07-03T01:50:30.419Z,77.32
2023-07-03T01:53:05.291Z,77.89
2023-07-03T01:55:40.648Z,77.71
2023-07-03T01:58:19.194Z,77.27
2023-07-03T02:00:57.169Z,77.39
2023-07-03T02:03:37.499Z,77.58
2023-07-03T02:06:11.197Z,77.85
2023-07-03T02:08:41.152Z,77.05
2023-07-03T02:11:17.877Z,77.36
2023-07-03T02:13:46.432Z,76.73
2023-07-03T02:16:17.236Z,76.68
2023-07-03T02:18:48.057Z,76.77
2023-07-03T02:21:16.434Z,76.97
2023-07-03T02:23:45.359Z,77.14
2023-07-03T02:26:15.561Z,75.67
2023-07-03T02:28:45.620Z,75.19
2023-07-03T02:31:13.961Z,75.10
2023-07-03T02:33:42.873Z,75.18
2023-07-03T02:36:11.214Z,75.54
2023-07-03T02:38:39.552Z,76.13
2023-07-03T02:41:08.092Z,75.88
2023-07-03T02:43:37.799Z,76.11
2023-07-03T02:46:10.043Z,77.13
2023-07-03T02:48:38.826Z,78.39
2023-07-03T02:51:07.125Z,78.07
2023-07-03T02:53:35.608Z,78.51
2023-07-03T02:56:03.918Z,78.56
2023-07-03T02:58:32.741Z,79.42
2023-07-03T03:01:02.386Z,79.66
2023-07-03T03:03:33.176Z,81.38
2023-07-03T03:06:01.494Z,80.59
2023-07-03T03:08:29.942Z,80.68
2023-07-03T03:10:58.545Z,81.39
2023-07-03T03:13:27.231Z,81.18
2023-07-03T03:15:55.940Z,81.01
2023-07-03T03:18:24.310Z,81.83
2023-07-03T03:20:54.382Z,81.80
2023-07-03T03:23:22.623Z,81.62
2023-07-03T03:25:51.349Z,82.59
2023-07-03T03:28:19.898Z,84.17
2023-07-03T03:30:51.144Z,83.94
2023-07-03T03:33:19.478Z,84.86
2023-07-03T03:35:51.792Z,84.56
2023-07-03T03:38:21.924Z,84.43
2023-07-03T03:40:56.852Z,83.35
2023-07-03T03:43:26.713Z,83.83
2023-07-03T03:45:57.576Z,84.94
2023-07-03T03:48:27.053Z,85.86
2023-07-03T03:50:57.257Z,86.78
2023-07-03T03:53:27.109Z,87.10
2023-07-03T03:55:59.039Z,88.07
2023-07-03T03:58:28.163Z,87.81
2023-07-03T04:00:56.692Z,87.12
2023-07-03T04:03:25.318Z,87.52
2023-07-03T04:05:58.603Z,87.53
2023-07-03T04:08:28.640Z,87.75
2023-07-03T04:10:57.780Z,87.61
2023-07-03T04:13:26.458Z,86.44
2023-07-03T04:16:04.790Z,86.19
2023-07-03T04:18:34.388Z,85.71
2023-07-03T04:21:05.703Z,85.50
2023-07-03T04:23:35.705Z,86.29
2023-07-03T04:26:04.452Z,86.60
2023-07-03T04:28:32.950Z,87.13
2023-07-03T04:31:03.505Z,86.85
2023-07-03T04:33:31.884Z,87.82
2023-07-03T04:36:02.910Z,88.72
2023-07-03T04:38:31.237Z,88.92
2023-07-03T04:41:02.255Z,90.33
2023-07-03T04:43:32.319Z,91.23
2023-07-03T04:46:04.850Z,93.38
2023-07-03T04:48:36.186Z,95.66
2023-07-03T04:51:05.134Z,97.19
2023-07-03T04:53:41.681Z,98.91
2023-07-03T04:56:12.808Z,99.32
2023-07-03T04:58:44.666Z,100.00
2023-07-03T05:01:18.041Z,100.00
2023-07-03T05:03:48.382Z,100.00
2023-07-03T05:06:16.775Z,100.00
2023-07-03T05:08:45.133Z,100.00
2023-07-03T05:11:15.134Z,100.00
2023-07-03T05:13:45.691Z,99.59
2023-07-03T05:16:18.948Z,100.00
2023-07-03T05:18:47.235Z,100.00
2023-07-03T05:21:17.046Z,100.00
2023-07-03T05:23:45.955Z,100.00
2023-07-03T05:26:17.238Z,100.00
2023-07-03T05:28:49.600Z,99.46
2023-07-03T05:31:22.384Z,99.41
2023-07-03T05:33:50.835Z,98.75
2023-07-03T05:36:19.803Z,97.91
2023-07-03T05:38:58.827Z,97.85
2023-07-03T05:41:29.141Z,97.32
2023-07-03T05:43:59.041Z,97.20
2023-07-03T05:46:29.227Z,96.69
2023-07-03T05:48:58.108Z,96.98
2023-07-03T05:51:26.536Z,96.08
2023-07-03T05:53:56.636Z,96.13
2023-07-03T05:56:29.823Z,95.46
2023-07-03T05:58:59.653Z,94.87
2023-07-03T06:01:30.013Z,94.17
2023-07-03T06:04:02.484Z,93.80
2023-07-03T06:06:30.738Z,92.79
2023-07-03T06:08:59.168Z,93.43
2023-07-03T06:11:27.907Z,93.51
2023-07-03T06:14:06.978Z,92.31
2023-07-03T06:16:38.300Z,92.46
2023-07-03T06:19:07.840Z,91.82
2023-07-03T06:21:48.257Z,91.95
2023-07-03T06:24:18.624Z,91.30
2023-07-03T06:26:47.373Z,91.30
2023-07-03T06:29:17.674Z,90.70
2023-07-03T06:31:49.785Z,90.81
2023-07-03T06:34:21.069Z,89.25
2023-07-03T06:36:49.550Z,89.40
2023-07-03T06:39:19.476Z,88.27
2023-07-03T06:41:48.576Z,87.98
2023-07-03T06:44:22.653Z,87.52
2023-07-03T06:46:53.614Z,87.66
2023-07-03T06:49:23.969Z,87.83
2023-07-03T06:51:52.517Z,86.52
2023-07-03T06:54:24.436Z,83.83
2023-07-03T06:56:58.242Z,83.90
2023-07-03T06:59:26.737Z,81.97
2023-07-03T07:01:57.027Z,80.69
2023-07-03T07:04:29.660Z,79.98
2023-07-03T07:06:58.483Z,78.72
2023-07-03T07:09:27.349Z,77.29
2023-07-03T07:11:58.734Z,76.26
2023-07-03T07:14:27.226Z,75.34
2023-07-03T07:17:01.443Z,74.51
2023-07-03T07:19:30.172Z,74.53
2023-07-03T07:21:58.596Z,74.25
2023-07-03T07:24:29.489Z,73.50
2023-07-03T07:27:01.391Z,73.07
2023-07-03T07:29:31.591Z,72.42
2023-07-03T07:32:01.496Z,71.30
2023-07-03T07:34:30.103Z,71.69
2023-07-03T07:36:58.760Z,73.64
2023-07-03T07:39:28.850Z,73.45
2023-07-03T07:41:57.669Z,75.69
2023-07-03T07:44:29.418Z,76.31
2023-07-03T07:47:28.268Z,75.73
2023-07-03T07:49:55.392Z,75.79
2023-07-03T07:52:29.015Z,75.77
2023-07-03T07:54:59.964Z,76.13
2023-07-03T07:57:32.392Z,76.16
2023-07-03T08:00:00.801Z,74.79
2023-07-03T08:02:29.921Z,74.65
2023-07-03T08:05:00.198Z,72.38
2023-07-03T08:07:38.385Z,71.34
2023-07-03T08:10:07.452Z,72.11
2023-07-03T08:12:37.939Z,72.85
2023-07-03T08:15:09.396Z,72.87
2023-07-03T08:17:37.950Z,71.58
2023-07-03T08:20:14.939Z,71.42
2023-07-03T08:22:46.238Z,69.53
2023-07-03T08:25:14.684Z,69.21
2023-07-03T08:27:47.739Z,69.06
2023-07-03T08:30:17.431Z,69.10
2023-07-03T08:32:45.788Z,68.14
2023-07-03T08:37:49.874Z,69.59
2023-07-03T08:40:27.967Z,69.98
2023-07-03T08:42:59.589Z,71.04
2023-07-03T08:45:35.909Z,70.35
2023-07-03T08:48:10.699Z,70.63
2023-07-03T08:50:44.493Z,70.18
2023-07-03T08:53:18.301Z,69.32
2023-07-03T08:55:52.988Z,68.88
2023-07-03T08:58:22.166Z,69.20
2023-07-03T09:00:59.720Z,70.25
2023-07-03T09:03:44.044Z,71.05
2023-07-03T09:06:20.914Z,70.86
2023-07-03T09:09:01.618Z,70.93
2023-07-03T09:11:33.005Z,70.82
2023-07-03T09:14:04.905Z,70.07
2023-07-03T09:16:33.649Z,69.68
2023-07-03T09:19:08.351Z,70.00
2023-07-03T09:21:42.378Z,70.90
2023-07-03T09:24:20.951Z,71.35
2023-07-03T09:26:52.963Z,72.02
2023-07-03T09:29:23.121Z,71.70
2023-07-03T09:31:52.042Z,70.60
2023-07-03T09:34:25.150Z,71.14
2023-07-03T09:37:00.597Z,69.42
2023-07-03T09:39:29.243Z,69.41
2023-07-03T09:42:08.454Z,66.18
2023-07-03T09:44:44.166Z,65.76
2023-07-03T09:47:23.281Z,64.68
2023-07-03T09:49:52.066Z,63.30
2023-07-03T09:52:22.513Z,62.67
2023-07-03T09:54:51.335Z,63.82
2023-07-03T09:57:22.284Z,65.94
2023-07-03T09:59:53.290Z,67.70
2023-07-03T10:07:27.634Z,69.24
2023-07-03T10:12:34.969Z,71.75
2023-07-03T10:15:07.676Z,73.84
2023-07-03T10:17:43.880Z,77.76
2023-07-03T10:20:28.842Z,83.23
2023-07-03T10:23:01.154Z,86.61
2023-07-03T10:25:34.161Z,89.04
2023-07-03T10:28:09.213Z,93.73
2023-07-03T10:30:40.962Z,93.98
2023-07-03T10:33:15.471Z,97.41
2023-07-03T10:35:46.392Z,96.54
2023-07-03T10:38:26.795Z,96.58
2023-07-03T10:41:01.946Z,96.54
2023-07-03T10:43:36.593Z,96.90
2023-07-03T10:46:15.979Z,95.07
2023-07-03T10:48:45.782Z,91.32
2023-07-03T10:51:26.031Z,92.44
2023-07-03T10:54:02.420Z,91.70
2023-07-03T10:56:37.242Z,89.63
2023-07-03T10:59:13.814Z,90.00
2023-07-03T11:01:54.053Z,88.48
2023-07-03T11:04:25.661Z,87.93
2023-07-03T11:07:04.502Z,87.53
2023-07-03T11:09:47.943Z,85.97
2023-07-03T11:12:26.040Z,86.75
2023-07-03T11:15:10.202Z,87.39
2023-07-03T11:23:19.680Z,87.35
2023-07-03T11:28:34.802Z,86.74
2023-07-03T11:31:07.722Z,85.81
2023-07-03T11:36:08.643Z,86.06
2023-07-03T11:43:51.829Z,85.69
2023-07-03T11:46:24.910Z,86.84
2023-07-03T11:48:59.142Z,84.00
2023-07-03T11:51:37.885Z,83.70
2023-07-03T11:54:20.173Z,81.80
2023-07-03T11:57:03.753Z,83.42
2023-07-03T11:59:45.660Z,82.67
2023-07-03T12:02:52.079Z,82.04
2023-07-03T12:05:58.388Z,81.65
2023-07-03T12:08:55.983Z,78.67
2023-07-03T12:11:28.379Z,76.14
2023-07-03T12:13:58.460Z,76.10
2023-07-03T12:16:30.057Z,74.76
2023-07-03T12:19:13.209Z,74.58
2023-07-03T12:21:45.266Z,75.41
2023-07-03T12:24:30.114Z,72.48
2023-07-03T12:27:09.422Z,71.76
2023-07-03T12:29:47.316Z,71.55
2023-07-03T12:32:27.243Z,73.76
2023-07-03T12:35:05.131Z,73.23
2023-07-03T12:37:35.970Z,74.18
2023-07-03T12:40:08.969Z,75.05
2023-07-03T12:42:37.960Z,75.15
2023-07-03T12:45:21.227Z,73.64
2023-07-03T12:48:03.472Z,73.10
2023-07-03T12:50:32.354Z,73.03
2023-07-03T12:53:04.002Z,73.16
2023-07-03T12:55:35.662Z,70.99
2023-07-03T12:58:04.409Z,70.08
2023-07-03T13:00:37.619Z,67.81
2023-07-03T13:03:13.414Z,68.76
2023-07-03T13:05:42.570Z,67.48
2023-07-03T13:08:27.463Z,66.98
2023-07-03T13:11:00.606Z,66.45
2023-07-03T13:13:29.569Z,65.89
2023-07-03T13:16:00.875Z,65.61
2023-07-03T13:18:29.382Z,66.23
2023-07-03T13:21:03.634Z,64.68
2023-07-03T13:23:35.608Z,64.68
2023-07-03T13:26:08.650Z,63.71
2023-07-03T13:28:39.887Z,63.73
2023-07-03T13:31:14.911Z,64.58
2023-07-03T13:33:48.313Z,65.46
2023-07-03T13:36:27.699Z,65.95
2023-07-03T13:39:10.458Z,66.61
2023-07-03T13:41:40.631Z,65.88
2023-07-03T13:44:11.618Z,65.62
2023-07-03T13:46:43.161Z,66.84
2023-07-03T13:49:14.273Z,67.64
2023-07-03T13:51:44.655Z,67.48
2023-07-03T13:54:16.751Z,66.97
2023-07-03T13:56:47.455Z,65.45
2023-07-03T13:59:19.275Z,65.24
2023-07-03T14:01:55.934Z,65.48
2023-07-03T14:04:24.520Z,66.40
2023-07-03T14:06:57.587Z,66.52
2023-07-03T14:09:26.456Z,66.31
2023-07-03T14:11:55.163Z,65.47
2023-07-03T14:14:24.458Z,64.40
2023-07-03T14:16:54.587Z,64.45
2023-07-03T14:19:24.522Z,64.10
2023-07-03T14:21:53.320Z,64.85
2023-07-03T14:24:33.113Z,64.67
2023-07-03T14:27:04.198Z,62.14
2023-07-03T14:29:36.922Z,62.24
2023-07-03T14:32:09.514Z,61.23
2023-07-03T14:34:37.997Z,62.78
2023-07-03T14:37:06.838Z,62.16
2023-07-03T14:39:36.299Z,60.68
2023-07-03T14:42:05.169Z,61.84
2023-07-03T14:44:34.295Z,61.58
2023-07-03T14:47:04.069Z,61.43
2023-07-03T14:49:35.592Z,60.14
2023-07-03T14:52:04.301Z,60.44
2023-07-03T14:54:33.861Z,61.01
2023-07-03T14:57:02.505Z,61.20
2023-07-03T14:59:32.997Z,62.26
2023-07-03T15:02:01.295Z,64.03
2023-07-03T15:04:30.408Z,65.21
2023-07-03T15:07:02.876Z,65.79
2023-07-03T15:09:39.224Z,66.39
2023-07-03T15:12:37.234Z,65.02
2023-07-03T15:15:06.642Z,64.64
2023-07-03T15:17:42.404Z,63.71
2023-07-03T15:20:12.963Z,63.93
2023-07-03T15:22:44.737Z,64.34
2023-07-03T15:25:13.079Z,65.44
2023-07-03T15:27:42.680Z,66.70
2023-07-03T15:30:12.112Z,67.97
2023-07-03T15:32:42.178Z,68.15
2023-07-03T15:35:12.345Z,68.68
2023-07-03T15:37:54.705Z,69.68
2023-07-03T15:40:24.246Z,69.17
2023-07-03T15:42:57.251Z,68.44
2023-07-03T15:45:46.797Z,67.50
2023-07-03T15:48:25.636Z,66.18
2023-07-03T15:50:58.267Z,65.64
2023-07-03T15:53:30.500Z,66.14
2023-07-03T15:56:03.643Z,66.60
2023-07-03T15:58:35.364Z,66.51
2023-07-03T16:01:07.982Z,67.15
2023-07-03T16:03:38.286Z,68.61
2023-07-03T16:06:09.188Z,68.65
2023-07-03T16:08:44.404Z,69.48
2023-07-03T16:11:15.071Z,69.36
2023-07-03T16:13:47.461Z,68.91
2023-07-03T16:16:19.306Z,69.34
2023-07-03T16:18:55.257Z,68.86
2023-07-03T16:21:31.670Z,68.25
2023-07-03T16:24:05.551Z,67.62
2023-07-03T16:26:34.608Z,67.78
2023-07-03T16:29:15.813Z,67.65
2023-07-03T16:31:48.479Z,68.10
2023-07-03T16:34:19.371Z,68.56
2023-07-03T16:36:48.954Z,69.67
2023-07-03T16:39:24.488Z,69.20
2023-07-03T16:41:54.562Z,68.69
2023-07-03T16:44:26.141Z,68.85
2023-07-03T16:46:57.169Z,69.09
2023-07-03T16:49:26.141Z,68.83
2023-07-03T16:51:55.230Z,69.05
2023-07-03T16:54:28.037Z,68.35
2023-07-03T16:56:57.590Z,68.00
2023-07-03T16:59:32.102Z,68.81
2023-07-03T17:02:02.008Z,69.44
2023-07-03T17:04:32.360Z,69.50
2023-07-03T17:07:02.737Z,69.94
2023-07-03T17:09:35.764Z,69.96
2023-07-03T17:12:09.288Z,69.78
2023-07-03T17:14:37.918Z,69.19
2023-07-03T17:17:08.328Z,68.20
2023-07-03T17:19:38.666Z,67.73
2023-07-03T17:22:08.331Z,68.14
2023-07-03T17:24:40.328Z,67.42
2023-07-03T17:27:16.139Z,65.97
2023-07-03T17:29:46.726Z,63.39
2023-07-03T17:32:16.501Z,61.23
2023-07-03T17:34:44.921Z,58.87
2023-07-03T17:37:16.178Z,59.37
2023-07-03T17:39:46.728Z,60.77
2023-07-03T17:42:22.521Z,61.06
2023-07-03T17:44:54.259Z,60.98
2023-07-03T17:47:25.250Z,61.96
2023-07-03T17:49:54.920Z,62.85
2023-07-03T17:52:32.606Z,63.25
2023-07-03T17:55:02.595Z,63.87
2023-07-03T17:57:31.239Z,64.62
2023-07-03T18:00:02.867Z,65.13
2023-07-03T18:02:45.126Z,65.17
2023-07-03T18:05:16.433Z,65.75
2023-07-03T18:07:44.854Z,66.21
2023-07-03T18:10:15.560Z,66.58
2023-07-03T18:12:44.109Z,67.53
2023-07-03T18:15:16.510Z,67.79
2023-07-03T18:17:45.477Z,68.66
2023-07-03T18:20:36.872Z,69.27
2023-07-03T18:23:03.431Z,70.64
2023-07-03T18:25:40.680Z,70.55
2023-07-03T18:28:25.261Z,71.20
2023-07-03T18:31:03.973Z,71.24
2023-07-03T18:33:37.548Z,71.23
2023-07-03T18:36:08.852Z,71.32
2023-07-03T18:38:38.536Z,71.89
2023-07-03T18:41:09.964Z,72.39
2023-07-03T18:43:52.564Z,72.55
2023-07-03T18:46:21.324Z,73.11
2023-07-03T18:48:49.864Z,73.80
2023-07-03T18:51:22.905Z,73.95
2023-07-03T18:53:52.568Z,74.17
2023-07-03T18:56:23.041Z,74.90
2023-07-03T18:58:58.051Z,75.11
2023-07-03T19:01:30.288Z,75.04
2023-07-03T19:04:01.430Z,74.51
2023-07-03T19:06:34.598Z,74.51
2023-07-03T19:09:06.181Z,74.39
2023-07-03T19:11:43.714Z,74.40
2023-07-03T19:14:13.782Z,74.63
2023-07-03T19:16:42.457Z,74.82
2023-07-03T19:19:13.004Z,74.49
2023-07-03T19:21:44.858Z,74.08
2023-07-03T19:24:22.443Z,74.30
2023-07-03T19:26:52.357Z,74.95
2023-07-03T19:29:25.186Z,75.22
2023-07-03T19:32:07.255Z,75.65
2023-07-03T19:34:37.321Z,76.42
2023-07-03T19:37:06.395Z,76.42
2023-07-03T19:39:34.760Z,76.69
2023-07-03T19:42:04.765Z,77.18
2023-07-03T19:44:35.540Z,76.89
2023-07-03T19:47:08.256Z,76.91
2023-07-03T19:49:38.686Z,76.18
2023-07-03T19:52:09.351Z,75.90
2023-07-03T19:54:46.459Z,75.64
2023-07-03T19:57:18.677Z,75.69
2023-07-03T19:59:51.270Z,75.43
2023-07-03T20:02:21.324Z,75.68
2023-07-03T20:04:51.609Z,75.43
2023-07-03T20:07:21.901Z,75.96
2023-07-03T20:09:50.196Z,76.07
2023-07-03T20:12:19.929Z,75.97
2023-07-03T20:14:53.979Z,76.24
2023-07-03T20:17:22.884Z,77.02
2023-07-03T20:19:52.961Z,77.66
2023-07-03T20:22:21.482Z,78.20
2023-07-03T20:24:50.091Z,78.64
2023-07-03T20:27:21.328Z,79.10
2023-07-03T20:29:58.458Z,79.28
2023-07-03T20:32:27.141Z,79.50
2023-07-03T20:34:57.798Z,79.94
2023-07-03T20:37:27.002Z,80.30
2023-07-03T20:39:59.801Z,80.19
2023-07-03T20:42:37.716Z,80.30
2023-07-03T20:45:08.889Z,80.66
2023-07-03T20:47:37.427Z,80.64
2023-07-03T20:50:16.984Z,81.25
2023-07-03T20:52:59.169Z,81.67
2023-07-03T20:55:36.842Z,81.65
2023-07-03T20:58:06.587Z,82.24
2023-07-03T21:00:35.282Z,82.28
2023-07-03T21:03:05.965Z,82.56
2023-07-03T21:05:36.585Z,82.31
2023-07-03T21:08:06.960Z,81.98
2023-07-03T21:10:37.541Z,82.51
2023-07-03T21:13:07.740Z,82.84
2023-07-03T21:15:38.789Z,83.02
2023-07-03T21:18:11.457Z,82.88
2023-07-03T21:20:40.054Z,83.14
2023-07-03T21:23:13.933Z,83.40
2023-07-03T21:25:48.712Z,83.20
2023-07-03T21:28:37.930Z,83.12
2023-07-03T21:31:18.550Z,83.86
2023-07-03T21:33:49.648Z,83.58
2023-07-03T21:36:24.882Z,83.75
2023-07-03T21:38:55.374Z,84.15
2023-07-03T21:41:32.667Z,83.82
2023-07-03T21:44:11.254Z,83.96
2023-07-03T21:46:40.923Z,83.95
2023-07-03T21:49:14.129Z,84.36
2023-07-03T21:51:42.297Z,84.98
2023-07-03T21:54:10.720Z,85.04
2023-07-03T21:56:39.880Z,84.72
2023-07-03T21:59:13.664Z,85.07
2023-07-03T22:01:43.289Z,85.27
2023-07-03T22:04:14.336Z,84.88
2023-07-03T22:06:42.890Z,85.24
2023-07-03T22:09:12.399Z,85.29
2023-07-03T22:11:41.249Z,85.48
2023-07-03T22:14:11.362Z,85.24
2023-07-03T22:16:39.937Z,85.97
2023-07-03T22:19:09.272Z,85.38
2023-07-03T22:21:38.596Z,85.90
2023-07-03T22:24:07.202Z,84.89
2023-07-03T22:26:35.919Z,85.14
2023-07-03T22:29:04.254Z,85.62
2023-07-03T22:31:36.148Z,85.74
2023-07-03T22:34:04.894Z,86.00
2023-07-03T22:36:35.774Z,86.18
2023-07-03T22:39:06.122Z,86.28
2023-07-03T22:41:34.609Z,86.49
2023-07-03T22:44:04.237Z,86.65
2023-07-03T22:46:34.877Z,86.43
2023-07-03T22:49:15.666Z,86.96
2023-07-03T22:51:53.231Z,87.05
2023-07-03T22:54:23.112Z,86.94
2023-07-03T22:56:51.625Z,86.90
2023-07-03T22:59:20.609Z,87.19
2023-07-03T23:01:54.430Z,87.51
2023-07-03T23:04:23.501Z,87.35
2023-07-03T23:06:51.929Z,88.04
2023-07-03T23:09:20.050Z,87.91
2023-07-03T23:11:48.235Z,88.13
2023-07-03T23:14:18.915Z,88.26
2023-07-03T23:16:50.945Z,88.16
2023-07-03T23:19:19.640Z,88.10
2023-07-03T23:21:50.481Z,88.76
2023-07-03T23:24:20.123Z,88.60
2023-07-03T23:26:55.323Z,88.55
2023-07-03T23:29:24.262Z,88.90
2023-07-03T23:31:53.889Z,88.95
2023-07-03T23:34:23.570Z,89.50
2023-07-03T23:36:52.360Z,89.52
2023-07-03T23:39:21.455Z,89.77
2023-07-03T23:41:54.975Z,90.53
2023-07-03T23:44:25.485Z,90.65
2023-07-03T23:46:56.960Z,91.35
2023-07-03T23:49:26.614Z,91.61
2023-07-03T23:51:55.127Z,92.26
2023-07-03T23:54:24.896Z,92.08
2023-07-03T23:56:56.596Z,92.51
2023-07-03T23:59:25.305Z,92.90
